Time,TemperatureF,DewpointF,PressureIn,WindDirection,WindDirectionDegrees,WindSpeedMPH,WindSpeedGustMPH,Humidity,HourlyPrecipIn,Conditions,Clouds,dailyrainin,SolarRadiationWatts/m^2,SoftwareType,DateUTC
2013-12-24 00:03:00,39.0,31.0,-100.00,North,358,8.0,17.0,73,0.00,,,0.01,5.000000,,2013-12-24 06:03:00,
2013-12-24 00:12:00,39.0,31.0,-100.00,North,358,8.0,17.0,73,0.00,,,0.01,5.000000,,2013-12-24 06:12:00,
2013-12-24 00:21:00,39.0,31.0,-100.00,North,358,8.0,17.0,73,0.00,,,0.01,5.000000,,2013-12-24 06:21:00,
2013-12-24 00:52:00,38.0,31.0,-100.00,North,0,7.0,16.0,76,0.00,,,0.01,5.000000,,2013-12-24 06:52:00,
2013-12-24 01:02:00,38.0,31.0,-100.00,North,0,7.0,16.0,76,0.00,,,0.01,5.000000,,2013-12-24 07:02:00,
2013-12-24 01:11:00,38.0,31.0,-100.00,North,0,7.0,16.0,76,0.00,,,0.01,5.000000,,2013-12-24 07:11:00,
2013-12-24 01:22:00,38.0,31.0,-100.00,North,0,7.0,16.0,76,0.00,,,0.01,5.000000,,2013-12-24 07:22:00,
2013-12-24 01:52:00,37.0,29.0,-100.00,North,358,8.0,19.0,74,0.00,,,-99.99,5.000000,,2013-12-24 07:52:00,
2013-12-24 02:02:00,37.0,29.0,-100.00,North,358,8.0,19.0,74,0.00,,,-99.99,5.000000,,2013-12-24 08:02:00,
2013-12-24 02:11:00,37.0,29.0,-100.00,North,358,8.0,19.0,74,0.00,,,-99.99,5.000000,,2013-12-24 08:11:00,
2013-12-24 02:22:00,37.0,29.0,-100.00,North,358,8.0,19.0,74,0.00,,,-99.99,5.000000,,2013-12-24 08:22:00,
2013-12-24 02:52:00,36.0,29.0,-100.00,North,357,8.0,18.0,77,0.00,,,0.01,5.000000,,2013-12-24 08:52:00,
2013-12-24 03:02:00,36.0,29.0,-100.00,North,357,8.0,18.0,77,0.00,,,0.01,5.000000,,2013-12-24 09:02:00,
2013-12-24 03:11:00,36.0,29.0,-100.00,North,357,8.0,18.0,77,0.00,,,0.01,5.000000,,2013-12-24 09:11:00,
2013-12-24 03:21:00,36.0,29.0,-100.00,North,357,8.0,18.0,77,0.00,,,0.01,5.000000,,2013-12-24 09:21:00,
2013-12-24 03:53:00,35.0,29.0,-100.00,North,3,6.0,18.0,80,0.00,,,0.01,5.000000,,2013-12-24 09:53:00,
2013-12-24 04:03:00,35.0,29.0,-100.00,North,3,6.0,18.0,80,0.00,,,0.01,5.000000,,2013-12-24 10:03:00,
2013-12-24 04:12:00,35.0,29.0,-100.00,North,3,6.0,18.0,80,0.00,,,0.01,5.000000,,2013-12-24 10:12:00,
2013-12-24 04:23:00,35.0,29.0,-100.00,North,3,6.0,18.0,80,0.00,,,0.01,5.000000,,2013-12-24 10:23:00,
2013-12-24 04:53:00,34.0,29.0,-100.00,North,354,6.0,13.0,83,0.00,,,0.01,5.000000,,2013-12-24 10:53:00,
2013-12-24 05:02:00,34.0,29.0,-100.00,North,354,6.0,13.0,83,0.00,,,0.01,5.000000,,2013-12-24 11:02:00,
2013-12-24 05:12:00,34.0,29.0,-100.00,North,354,6.0,13.0,83,0.00,,,0.01,5.000000,,2013-12-24 11:12:00,
2013-12-24 05:22:00,34.0,29.0,-100.00,North,354,6.0,13.0,83,0.00,,,0.01,5.000000,,2013-12-24 11:22:00,
2013-12-24 05:53:00,33.0,29.0,-100.00,North,360,6.0,13.0,85,0.00,,,0.00,5.000000,,2013-12-24 11:53:00,
2013-12-24 06:02:00,33.0,29.0,-100.00,North,360,6.0,13.0,85,0.00,,,0.00,5.000000,,2013-12-24 12:02:00,
2013-12-24 06:11:00,33.0,29.0,-100.00,North,360,6.0,13.0,85,0.00,,,0.00,5.000000,,2013-12-24 12:11:00,
2013-12-24 06:22:00,33.0,29.0,-100.00,North,360,6.0,13.0,85,0.00,,,0.00,5.000000,,2013-12-24 12:22:00,
2013-12-24 06:52:00,32.0,28.0,-100.00,North,353,6.0,13.0,86,0.00,,,0.00,5.000000,,2013-12-24 12:52:00,
2013-12-24 07:02:00,32.0,28.0,-100.00,North,353,6.0,13.0,86,0.00,,,0.00,5.000000,,2013-12-24 13:02:00,
2013-12-24 07:11:00,32.0,28.0,-100.00,North,353,6.0,13.0,86,0.00,,,0.00,5.000000,,2013-12-24 13:11:00,
2013-12-24 07:22:00,32.0,28.0,-100.00,North,353,6.0,13.0,86,0.00,,,0.00,5.000000,,2013-12-24 13:22:00,
2013-12-24 07:52:00,33.0,29.0,-100.00,North,357,7.0,13.0,84,0.00,,,0.00,17.000000,,2013-12-24 13:52:00,
2013-12-24 08:02:00,33.0,29.0,-100.00,North,357,7.0,13.0,84,0.00,,,0.00,17.000000,,2013-12-24 14:02:00,
2013-12-24 08:11:00,33.0,29.0,-100.00,North,357,7.0,13.0,84,0.00,,,0.00,17.000000,,2013-12-24 14:11:00,
2013-12-24 08:22:00,33.0,29.0,-100.00,North,357,7.0,13.0,84,0.00,,,0.00,17.000000,,2013-12-24 14:22:00,
2013-12-24 08:52:00,37.0,28.0,-100.00,North,10,7.0,15.0,71,0.00,,,0.00,216.000000,,2013-12-24 14:52:00,
2013-12-24 09:02:00,37.0,28.0,-100.00,North,10,7.0,15.0,71,0.00,,,0.00,216.000000,,2013-12-24 15:02:00,
2013-12-24 09:11:00,37.0,28.0,-100.00,North,10,7.0,15.0,71,0.00,,,0.00,216.000000,,2013-12-24 15:11:00,
2013-12-24 09:21:00,37.0,28.0,-100.00,North,10,7.0,15.0,71,0.00,,,0.00,216.000000,,2013-12-24 15:21:00,
2013-12-24 09:54:00,42.0,28.0,-100.00,NNE,18,7.0,16.0,58,0.00,,,0.00,423.000000,,2013-12-24 15:54:00,
2013-12-24 10:03:00,42.0,28.0,-100.00,NNE,18,7.0,16.0,58,0.00,,,0.00,423.000000,,2013-12-24 16:03:00,
2013-12-24 10:12:00,42.0,28.0,-100.00,NNE,18,7.0,16.0,58,0.00,,,0.00,423.000000,,2013-12-24 16:12:00,
2013-12-24 10:23:00,42.0,28.0,-100.00,NNE,18,7.0,16.0,58,0.00,,,0.00,423.000000,,2013-12-24 16:23:00,
2013-12-24 10:53:00,45.0,25.0,-100.00,North,1,8.0,19.0,45,0.00,,,0.00,589.000000,,2013-12-24 16:53:00,
2013-12-24 11:02:00,45.0,25.0,-100.00,North,1,8.0,19.0,45,0.00,,,0.00,589.000000,,2013-12-24 17:02:00,
2013-12-24 11:12:00,45.0,25.0,-100.00,North,1,8.0,19.0,45,0.00,,,0.00,589.000000,,2013-12-24 17:12:00,
2013-12-24 11:22:00,45.0,25.0,-100.00,North,1,8.0,19.0,45,0.00,,,0.00,589.000000,,2013-12-24 17:22:00,
2013-12-24 11:52:00,48.0,26.0,-100.00,North,359,8.0,18.0,42,0.00,,,0.00,693.000000,,2013-12-24 17:52:00,
2013-12-24 12:02:00,48.0,26.0,-100.00,North,359,8.0,18.0,42,0.00,,,0.00,693.000000,,2013-12-24 18:02:00,
2013-12-24 12:12:00,48.0,26.0,-100.00,North,359,8.0,18.0,42,0.00,,,0.00,693.000000,,2013-12-24 18:12:00,
2013-12-24 12:22:00,48.0,26.0,-100.00,North,359,8.0,18.0,42,0.00,,,0.00,693.000000,,2013-12-24 18:22:00,
2013-12-24 12:52:00,50.0,27.0,-100.00,North,352,9.0,17.0,40,0.00,,,0.00,727.000000,,2013-12-24 18:52:00,
2013-12-24 13:01:00,50.0,27.0,-100.00,North,352,9.0,17.0,40,0.00,,,0.00,727.000000,,2013-12-24 19:01:00,
2013-12-24 13:12:00,50.0,27.0,-100.00,North,352,9.0,17.0,40,0.00,,,0.00,727.000000,,2013-12-24 19:12:00,
2013-12-24 13:22:00,50.0,27.0,-100.00,North,352,9.0,17.0,40,0.00,,,0.00,727.000000,,2013-12-24 19:22:00,
2013-12-24 13:52:00,52.0,28.0,-100.00,North,3,8.0,15.0,40,0.00,,,0.00,688.000000,,2013-12-24 19:52:00,
2013-12-24 14:01:00,52.0,28.0,-100.00,North,3,8.0,15.0,40,0.00,,,0.00,688.000000,,2013-12-24 20:01:00,
2013-12-24 14:12:00,52.0,28.0,-100.00,North,3,8.0,15.0,40,0.00,,,0.00,688.000000,,2013-12-24 20:12:00,
2013-12-24 14:22:00,52.0,28.0,-100.00,North,3,8.0,15.0,40,0.00,,,0.00,688.000000,,2013-12-24 20:22:00,
2013-12-24 14:52:00,53.0,28.0,-100.00,North,351,8.0,18.0,38,0.00,,,0.00,577.000000,,2013-12-24 20:52:00,
2013-12-24 15:02:00,53.0,28.0,-100.00,North,351,8.0,18.0,38,0.00,,,0.00,577.000000,,2013-12-24 21:02:00,
2013-12-24 15:11:00,53.0,28.0,-100.00,North,351,8.0,18.0,38,0.00,,,0.00,577.000000,,2013-12-24 21:11:00,
2013-12-24 15:22:00,53.0,28.0,-100.00,North,351,8.0,18.0,38,0.00,,,0.00,577.000000,,2013-12-24 21:22:00,
2013-12-24 15:53:00,53.0,28.0,-100.00,North,2,7.0,17.0,38,0.00,,,0.00,405.000000,,2013-12-24 21:53:00,
2013-12-24 16:03:00,53.0,28.0,-100.00,North,2,7.0,17.0,38,0.00,,,0.00,405.000000,,2013-12-24 22:03:00,
2013-12-24 16:12:00,53.0,28.0,-100.00,North,2,7.0,17.0,38,0.00,,,0.00,405.000000,,2013-12-24 22:12:00,
2013-12-24 16:23:00,53.0,28.0,-100.00,North,2,7.0,17.0,38,0.00,,,0.00,405.000000,,2013-12-24 22:23:00,
2013-12-24 16:53:00,50.0,27.0,-100.00,North,358,5.0,15.0,41,0.00,,,0.00,179.000000,,2013-12-24 22:53:00,
2013-12-24 17:02:00,50.0,27.0,-100.00,North,358,5.0,15.0,41,0.00,,,0.00,179.000000,,2013-12-24 23:02:00,
2013-12-24 17:12:00,50.0,27.0,-100.00,North,358,5.0,15.0,41,0.00,,,0.00,179.000000,,2013-12-24 23:12:00,
2013-12-24 17:21:00,50.0,27.0,-100.00,North,358,5.0,15.0,41,0.00,,,0.00,179.000000,,2013-12-24 23:21:00,
2013-12-24 17:53:00,43.0,31.0,-100.00,NNE,22,1.0,9.0,63,0.00,,,0.00,12.000000,,2013-12-24 23:53:00,
2013-12-24 18:02:00,43.0,31.0,-100.00,NNE,22,1.0,9.0,63,0.00,,,0.00,12.000000,,2013-12-25 00:02:00,
2013-12-24 18:11:00,43.0,31.0,-100.00,NNE,22,1.0,9.0,63,0.00,,,0.00,12.000000,,2013-12-25 00:11:00,
2013-12-24 18:22:00,43.0,31.0,-100.00,NNE,22,1.0,9.0,63,0.00,,,0.00,12.000000,,2013-12-25 00:22:00,
2013-12-24 18:52:00,40.0,29.0,-100.00,NNE,12,2.0,5.0,65,0.00,,,0.00,5.000000,,2013-12-25 00:52:00,
2013-12-24 19:02:00,40.0,29.0,-100.00,NNE,12,2.0,5.0,65,0.00,,,0.00,5.000000,,2013-12-25 01:02:00,
2013-12-24 19:11:00,40.0,29.0,-100.00,NNE,12,2.0,5.0,65,0.00,,,0.00,5.000000,,2013-12-25 01:11:00,
2013-12-24 19:21:00,40.0,29.0,-100.00,NNE,12,2.0,5.0,65,0.00,,,0.00,5.000000,,2013-12-25 01:21:00,
2013-12-24 19:52:00,36.0,32.0,-100.00,North,-999,0.0,3.0,86,0.00,,,0.00,5.000000,,2013-12-25 01:52:00,
2013-12-24 20:01:00,36.0,32.0,-100.00,North,-999,0.0,3.0,86,0.00,,,0.00,5.000000,,2013-12-25 02:01:00,
2013-12-24 20:11:00,36.0,32.0,-100.00,North,-999,0.0,3.0,86,0.00,,,0.00,5.000000,,2013-12-25 02:11:00,
2013-12-24 20:22:00,36.0,32.0,-100.00,North,-999,0.0,3.0,86,0.00,,,0.00,5.000000,,2013-12-25 02:22:00,
2013-12-24 21:12:00,32.0,30.0,-100.00,North,-999,0.0,0.0,94,0.00,,,0.00,5.000000,,2013-12-25 03:12:00,
2013-12-24 21:22:00,32.0,30.0,-100.00,North,-999,0.0,0.0,94,0.00,,,0.00,5.000000,,2013-12-25 03:22:00,
2013-12-24 22:23:00,31.0,30.0,-100.00,North,355,2.0,3.0,97,0.00,,,0.00,5.000000,,2013-12-25 04:23:00,
2013-12-24 22:53:00,31.0,29.0,-100.00,North,-999,0.0,3.0,93,0.00,,,0.00,5.000000,,2013-12-25 04:53:00,
2013-12-24 23:02:00,31.0,29.0,-100.00,North,-999,0.0,3.0,93,0.00,,,0.00,5.000000,,2013-12-25 05:02:00,
2013-12-24 23:12:00,31.0,29.0,-100.00,North,-999,0.0,3.0,93,0.00,,,0.00,5.000000,,2013-12-25 05:12:00,
2013-12-24 23:22:00,31.0,29.0,-100.00,North,-999,0.0,3.0,93,0.00,,,0.00,5.000000,,2013-12-25 05:22:00,